createdAt,value
2017-11-16T00:01:10.473Z,11.80
2017-11-16T00:03:40.101Z,11.80
2017-11-16T00:06:08.994Z,11.80
2017-11-16T00:08:37.879Z,11.90
2017-11-16T00:11:06.732Z,11.90
2017-11-16T00:13:36.338Z,12.10
2017-11-16T00:16:05.985Z,12.10
2017-11-16T00:18:34.848Z,12.10
2017-11-16T00:21:04.466Z,12.20
2017-11-16T00:23:33.338Z,12.20
2017-11-16T00:26:02.977Z,12.20
2017-11-16T00:28:31.824Z,12.20
2017-11-16T00:31:00.665Z,12.20
2017-11-16T00:33:29.524Z,12.20
2017-11-16T00:35:59.147Z,12.20
2017-11-16T00:38:28.006Z,12.20
2017-11-16T00:40:57.524Z,12.20
2017-11-16T00:43:27.151Z,12.10
2017-11-16T00:45:56.090Z,12.10
2017-11-16T00:48:24.911Z,12.10
2017-11-16T00:50:53.984Z,12.20
2017-11-16T00:53:23.246Z,12.20
2017-11-16T00:55:52.541Z,12.20
2017-11-16T00:58:22.908Z,12.10
2017-11-16T01:00:51.780Z,12.10
2017-11-16T01:03:21.427Z,12.10
2017-11-16T01:05:50.276Z,12.00
2017-11-16T01:08:19.885Z,12.00
2017-11-16T01:10:49.508Z,12.00
2017-11-16T01:13:18.350Z,12.00
2017-11-16T01:15:47.216Z,12.10
2017-11-16T01:18:16.055Z,12.10
2017-11-16T01:20:45.773Z,12.00
2017-11-16T01:23:15.419Z,12.00
2017-11-16T01:25:44.274Z,12.00
2017-11-16T01:28:13.161Z,12.00
2017-11-16T01:30:42.759Z,11.70
2017-11-16T01:33:12.378Z,11.60
2017-11-16T01:35:41.289Z,11.50
2017-11-16T01:38:10.157Z,11.50
2017-11-16T01:40:39.753Z,11.50
2017-11-16T01:43:09.376Z,11.50
2017-11-16T01:45:38.227Z,11.50
2017-11-16T01:48:07.081Z,11.60
2017-11-16T01:50:35.921Z,11.60
2017-11-16T01:53:05.562Z,11.60
2017-11-16T01:55:34.405Z,11.60
2017-11-16T01:58:03.253Z,11.60
2017-11-16T02:00:32.868Z,11.50
2017-11-16T02:03:02.485Z,11.50
2017-11-16T02:05:31.327Z,11.50
2017-11-16T02:08:00.188Z,11.60
2017-11-16T02:10:29.027Z,11.50
2017-11-16T02:12:58.663Z,11.70
2017-11-16T02:15:27.509Z,11.70
2017-11-16T02:17:56.998Z,11.70
2017-11-16T02:20:25.843Z,11.80
2017-11-16T02:22:54.749Z,11.80
2017-11-16T02:25:23.815Z,11.90
2017-11-16T02:27:52.635Z,11.90
2017-11-16T02:30:21.621Z,11.90
2017-11-16T02:32:50.476Z,12.00
2017-11-16T02:35:20.088Z,12.00
2017-11-16T02:37:49.717Z,12.00
2017-11-16T02:40:18.574Z,12.00
2017-11-16T02:42:48.202Z,12.00
2017-11-16T02:45:17.741Z,12.00
2017-11-16T02:47:46.610Z,12.00
2017-11-16T02:50:16.212Z,12.00
2017-11-16T02:52:45.060Z,11.90
2017-11-16T02:55:13.942Z,12.00
2017-11-16T02:57:43.558Z,11.80
2017-11-16T03:00:13.180Z,11.80
2017-11-16T03:02:42.043Z,11.70
2017-11-16T03:05:11.675Z,11.60
2017-11-16T03:07:40.521Z,11.60
2017-11-16T03:10:10.879Z,11.70
2017-11-16T03:12:39.733Z,11.70
2017-11-16T03:15:08.587Z,11.80
2017-11-16T03:17:37.418Z,11.70
2017-11-16T03:20:06.260Z,11.70
2017-11-16T03:22:35.103Z,11.70
2017-11-16T03:25:04.708Z,11.70
2017-11-16T03:27:34.744Z,11.60
2017-11-16T03:30:04.017Z,11.60
2017-11-16T03:32:32.863Z,11.60
2017-11-16T03:35:01.745Z,11.60
2017-11-16T03:37:30.613Z,11.60
2017-11-16T03:39:59.449Z,11.30
2017-11-16T03:42:28.308Z,11.00
2017-11-16T03:44:57.252Z,11.00
2017-11-16T03:47:26.063Z,11.10
2017-11-16T03:49:55.696Z,10.50
2017-11-16T03:52:24.598Z,10.50
2017-11-16T03:54:53.688Z,10.40
2017-11-16T03:57:22.541Z,10.30
2017-11-16T03:59:51.380Z,10.10
2017-11-16T04:02:20.242Z,10.00
2017-11-16T04:04:49.082Z,10.00
2017-11-16T04:07:18.690Z,10.10
2017-11-16T04:09:48.290Z,10.00
2017-11-16T04:12:18.129Z,10.20
2017-11-16T04:14:47.121Z,10.10
2017-11-16T04:17:15.974Z,10.20
2017-11-16T04:19:44.811Z,10.20
2017-11-16T04:22:13.688Z,10.30
2017-11-16T04:24:42.561Z,10.30
2017-11-16T04:27:12.166Z,10.60
2017-11-16T04:29:44.764Z,10.50
2017-11-16T04:32:13.620Z,10.60
2017-11-16T04:34:43.237Z,10.90
2017-11-16T04:37:12.893Z,10.90
2017-11-16T04:39:41.769Z,10.90
2017-11-16T04:42:10.626Z,10.90
2017-11-16T04:44:40.243Z,11.10
2017-11-16T04:47:09.120Z,11.10
2017-11-16T04:49:38.729Z,11.10
2017-11-16T04:52:08.361Z,10.80
2017-11-16T04:54:37.225Z,10.80
2017-11-16T04:57:06.051Z,10.90
2017-11-16T04:59:35.030Z,10.90
2017-11-16T05:02:03.868Z,10.90
2017-11-16T05:04:32.711Z,10.60
2017-11-16T05:07:01.566Z,10.60
2017-11-16T05:09:30.419Z,10.50
2017-11-16T05:12:00.044Z,10.20
2017-11-16T05:14:29.028Z,10.20
2017-11-16T05:16:57.868Z,10.40
2017-11-16T05:19:26.696Z,10.40
2017-11-16T05:21:56.544Z,10.40
2017-11-16T05:24:25.372Z,10.30
2017-11-16T05:26:54.999Z,10.40
2017-11-16T05:29:24.609Z,10.40
2017-11-16T05:31:54.216Z,10.50
2017-11-16T05:34:23.489Z,10.50
2017-11-16T05:36:52.336Z,10.50
2017-11-16T05:39:21.627Z,10.50
2017-11-16T05:41:50.526Z,10.60
2017-11-16T05:44:20.122Z,10.50
2017-11-16T05:46:48.975Z,10.40
2017-11-16T05:49:17.813Z,10.60
2017-11-16T05:51:46.678Z,10.50
2017-11-16T05:54:15.527Z,10.60
2017-11-16T05:56:46.744Z,10.70
2017-11-16T05:59:16.580Z,10.90
2017-11-16T06:01:46.209Z,11.00
2017-11-16T06:04:15.810Z,10.90
2017-11-16T06:06:45.415Z,10.80
2017-11-16T06:09:15.043Z,10.70
2017-11-16T06:11:43.889Z,10.70
2017-11-16T06:14:12.737Z,10.60
2017-11-16T06:16:41.559Z,10.50
2017-11-16T06:19:10.429Z,10.40
2017-11-16T06:21:39.272Z,10.40
2017-11-16T06:24:09.199Z,10.60
2017-11-16T06:26:38.032Z,10.60
2017-11-16T06:29:06.892Z,10.70
2017-11-16T06:31:35.758Z,10.60
2017-11-16T06:34:05.381Z,10.40
2017-11-16T06:36:34.276Z,10.40
2017-11-16T06:39:03.126Z,10.50
2017-11-16T06:41:32.743Z,10.30
2017-11-16T06:44:02.349Z,10.20
2017-11-16T06:46:31.977Z,10.10
2017-11-16T06:49:00.821Z,10.00
2017-11-16T06:51:29.655Z,10.00
2017-11-16T06:53:58.528Z,9.80
2017-11-16T06:56:28.131Z,9.80
2017-11-16T06:58:56.952Z,9.70
2017-11-16T07:01:25.802Z,9.70
2017-11-16T07:03:54.651Z,9.60
2017-11-16T07:06:23.491Z,9.70
2017-11-16T07:08:52.470Z,9.70
2017-11-16T07:11:23.121Z,9.80
2017-11-16T07:13:52.000Z,9.90
2017-11-16T07:16:20.837Z,10.00
2017-11-16T07:18:49.681Z,10.20
2017-11-16T07:21:18.523Z,10.20
2017-11-16T07:36:48.137Z,9.80
2017-11-16T07:39:17.763Z,9.70
2017-11-16T07:41:46.636Z,9.60
2017-11-16T07:44:16.244Z,9.70
2017-11-16T07:46:45.891Z,9.60
2017-11-16T07:49:15.136Z,9.60
2017-11-16T07:51:44.756Z,9.70
2017-11-16T07:54:14.377Z,9.90
2017-11-16T07:56:43.209Z,9.80
2017-11-16T07:59:12.081Z,9.70
2017-11-16T08:01:40.913Z,9.70
2017-11-16T08:04:11.267Z,9.80
2017-11-16T08:06:40.878Z,9.80
2017-11-16T08:09:09.751Z,9.80
2017-11-16T08:11:39.867Z,9.90
2017-11-16T08:14:09.516Z,9.80
2017-11-16T08:16:38.359Z,9.80
2017-11-16T08:19:07.188Z,9.90
2017-11-16T08:21:36.046Z,10.00
2017-11-16T08:24:05.683Z,10.00
2017-11-16T08:26:34.571Z,10.00
2017-11-16T08:29:03.416Z,10.10
2017-11-16T08:31:33.804Z,10.00
2017-11-16T08:34:02.645Z,10.00
2017-11-16T08:36:31.515Z,10.10
2017-11-16T08:39:00.366Z,10.10
2017-11-16T08:41:29.229Z,10.10
2017-11-16T08:43:58.881Z,10.10
2017-11-16T08:46:27.728Z,10.10
2017-11-16T08:48:56.587Z,10.20
2017-11-16T08:51:25.431Z,10.20
2017-11-16T08:53:54.287Z,10.30
2017-11-16T08:56:24.847Z,10.10
2017-11-16T08:58:54.282Z,10.10
2017-11-16T09:01:23.162Z,10.20
2017-11-16T09:03:52.010Z,10.20
2017-11-16T09:06:21.628Z,10.60
2017-11-16T09:08:51.249Z,10.70
2017-11-16T09:11:20.527Z,10.70
2017-11-16T09:13:50.136Z,10.80
2017-11-16T09:16:19.822Z,10.90
2017-11-16T09:18:48.633Z,10.90
2017-11-16T09:21:17.756Z,11.00
2017-11-16T09:23:46.605Z,11.10
2017-11-16T09:26:16.223Z,11.00
2017-11-16T09:28:45.836Z,11.00
2017-11-16T09:31:15.471Z,10.80
2017-11-16T09:33:44.337Z,10.70
2017-11-16T09:36:13.212Z,10.60
2017-11-16T09:38:42.862Z,10.50
2017-11-16T09:41:11.692Z,10.50
2017-11-16T09:43:40.531Z,10.70
2017-11-16T09:46:09.402Z,10.80
2017-11-16T09:48:39.028Z,11.00
2017-11-16T09:51:07.892Z,10.90
2017-11-16T09:53:37.502Z,11.00
2017-11-16T09:56:07.136Z,10.90
2017-11-16T09:58:35.970Z,10.90
2017-11-16T10:01:04.920Z,10.80
2017-11-16T10:03:33.775Z,10.60
2017-11-16T10:06:02.632Z,10.70
2017-11-16T10:08:31.572Z,10.60
2017-11-16T10:11:00.439Z,10.70
2017-11-16T10:13:29.319Z,10.90
2017-11-16T10:15:58.194Z,11.10
2017-11-16T10:18:27.079Z,11.00
2017-11-16T10:20:56.668Z,11.00
2017-11-16T10:23:26.309Z,11.00
2017-11-16T10:25:55.140Z,10.90
2017-11-16T10:28:24.033Z,11.00
2017-11-16T10:30:52.882Z,11.10
2017-11-16T10:33:21.842Z,11.30
2017-11-16T10:35:51.441Z,11.20
2017-11-16T10:38:21.091Z,11.30
2017-11-16T10:40:50.702Z,11.20
2017-11-16T10:43:19.543Z,11.10
2017-11-16T10:45:49.180Z,11.30
2017-11-16T10:48:18.025Z,11.30
2017-11-16T10:50:46.881Z,11.40
2017-11-16T10:53:15.711Z,11.30
2017-11-16T10:55:45.331Z,11.40
2017-11-16T10:58:14.941Z,11.40
2017-11-16T11:00:44.584Z,11.50
2017-11-16T11:03:14.172Z,11.50
2017-11-16T11:05:43.024Z,11.50
2017-11-16T11:08:12.747Z,11.10
2017-11-16T11:10:43.292Z,11.20
2017-11-16T11:13:12.144Z,11.10
2017-11-16T11:15:40.987Z,11.10
2017-11-16T11:18:09.832Z,11.00
2017-11-16T11:20:39.435Z,11.10
2017-11-16T11:23:08.557Z,11.10
2017-11-16T11:25:37.416Z,11.20
2017-11-16T11:28:07.135Z,11.40
2017-11-16T11:30:36.745Z,11.70
2017-11-16T11:33:06.392Z,11.90
2017-11-16T11:35:35.256Z,11.80
2017-11-16T11:38:04.860Z,11.90
2017-11-16T11:40:34.465Z,11.90
2017-11-16T11:43:04.208Z,11.90
2017-11-16T11:45:33.064Z,11.80
2017-11-16T11:48:01.929Z,11.70
2017-11-16T11:50:31.042Z,11.60
2017-11-16T11:53:00.694Z,11.40
2017-11-16T11:55:29.605Z,11.40
2017-11-16T11:57:58.452Z,11.50
2017-11-16T12:00:27.305Z,11.60
2017-11-16T12:02:56.378Z,11.60
2017-11-16T12:05:25.429Z,11.60
2017-11-16T12:07:54.334Z,11.50
2017-11-16T12:10:23.760Z,11.50
2017-11-16T12:12:52.628Z,11.40
2017-11-16T12:15:21.951Z,11.50
2017-11-16T12:17:50.820Z,11.50
2017-11-16T12:20:20.895Z,11.60
2017-11-16T12:22:49.717Z,11.50
2017-11-16T12:25:18.611Z,11.60
2017-11-16T12:27:47.489Z,11.80
2017-11-16T12:30:16.360Z,12.00
2017-11-16T12:32:45.975Z,12.10
2017-11-16T12:35:15.294Z,12.10
2017-11-16T12:37:44.136Z,12.20
2017-11-16T12:40:13.002Z,12.00
2017-11-16T12:42:41.874Z,12.00
2017-11-16T12:45:10.742Z,12.10
2017-11-16T12:47:40.360Z,12.00
2017-11-16T12:50:09.208Z,12.00
2017-11-16T12:52:38.855Z,12.30
2017-11-16T12:55:07.751Z,12.30
2017-11-16T12:57:36.620Z,12.40
2017-11-16T13:00:06.262Z,12.50
2017-11-16T13:02:35.102Z,12.50
2017-11-16T13:05:03.965Z,12.60
2017-11-16T13:07:33.601Z,12.80
2017-11-16T13:10:02.444Z,12.70
2017-11-16T13:12:32.075Z,12.80
2017-11-16T13:15:00.933Z,12.80
2017-11-16T13:17:30.558Z,12.80
2017-11-16T13:20:00.181Z,12.80
2017-11-16T13:22:29.449Z,12.70
2017-11-16T13:24:59.083Z,12.50
2017-11-16T13:27:27.937Z,12.50
2017-11-16T13:29:57.596Z,12.40
2017-11-16T13:32:26.433Z,12.30
2017-11-16T13:34:55.324Z,12.40
2017-11-16T13:37:24.178Z,12.40
2017-11-16T13:39:53.047Z,12.20
2017-11-16T13:42:21.897Z,12.40
2017-11-16T13:44:51.544Z,12.20
2017-11-16T13:47:20.382Z,12.10
2017-11-16T13:49:50.321Z,11.90
2017-11-16T13:52:19.959Z,11.90
2017-11-16T13:54:48.813Z,11.80
2017-11-16T13:57:17.659Z,11.80
2017-11-16T13:59:46.538Z,11.80
2017-11-16T14:02:15.372Z,11.80
2017-11-16T14:04:44.559Z,11.80
2017-11-16T14:07:14.160Z,11.70
2017-11-16T14:09:43.782Z,11.60
2017-11-16T14:12:12.629Z,11.60
2017-11-16T14:14:41.475Z,11.70
2017-11-16T14:17:10.329Z,11.60
2017-11-16T14:19:39.630Z,11.60
2017-11-16T14:22:09.264Z,11.60
2017-11-16T14:24:38.754Z,11.60
2017-11-16T14:27:08.445Z,11.70
2017-11-16T14:29:37.545Z,11.70
2017-11-16T14:32:07.158Z,11.90
2017-11-16T14:34:36.011Z,11.90
2017-11-16T14:37:05.628Z,12.10
2017-11-16T14:39:35.249Z,12.20
2017-11-16T14:42:04.902Z,12.20
2017-11-16T14:44:33.742Z,12.20
2017-11-16T14:47:03.397Z,12.00
2017-11-16T14:49:32.236Z,11.90
2017-11-16T14:52:01.926Z,11.60
2017-11-16T14:54:31.791Z,11.40
2017-11-16T14:57:00.647Z,11.40
2017-11-16T14:59:29.506Z,11.30
2017-11-16T15:01:58.357Z,11.20
2017-11-16T15:04:27.238Z,11.10
2017-11-16T15:06:56.076Z,11.00
2017-11-16T15:09:24.928Z,10.90
2017-11-16T15:11:53.792Z,10.90
2017-11-16T15:14:23.390Z,11.10
2017-11-16T15:16:53.000Z,11.10
2017-11-16T15:19:21.860Z,11.00
2017-11-16T15:21:50.716Z,11.10
2017-11-16T15:24:19.575Z,11.00
2017-11-16T15:26:48.438Z,10.90
2017-11-16T15:29:17.270Z,10.70
2017-11-16T15:31:47.048Z,10.80
2017-11-16T15:34:16.671Z,11.00
2017-11-16T15:36:46.297Z,11.20
2017-11-16T15:39:15.163Z,11.10
2017-11-16T15:41:44.045Z,11.20
2017-11-16T15:44:13.663Z,11.30
2017-11-16T15:46:43.285Z,11.40
2017-11-16T15:49:12.140Z,11.30
2017-11-16T15:51:40.996Z,11.30
2017-11-16T15:54:09.853Z,11.30
2017-11-16T15:56:38.722Z,11.30
2017-11-16T15:59:07.543Z,11.40
2017-11-16T16:01:36.426Z,11.50
2017-11-16T16:04:05.389Z,11.40
2017-11-16T16:06:34.233Z,11.20
2017-11-16T16:09:03.848Z,11.30
2017-11-16T16:11:32.738Z,11.30
2017-11-16T16:14:02.377Z,11.10
2017-11-16T16:16:31.230Z,11.10
2017-11-16T16:19:00.072Z,10.90
2017-11-16T16:21:28.953Z,11.00
2017-11-16T16:23:57.795Z,11.10
2017-11-16T16:26:27.441Z,11.10
2017-11-16T16:28:56.299Z,11.10
2017-11-16T16:31:25.941Z,11.20
2017-11-16T16:33:54.792Z,11.20
2017-11-16T16:36:24.401Z,11.40
2017-11-16T16:38:54.028Z,11.50
2017-11-16T16:41:23.604Z,11.50
2017-11-16T16:43:52.486Z,11.60
2017-11-16T16:46:22.878Z,11.50
2017-11-16T16:48:51.723Z,11.50
2017-11-16T16:51:21.332Z,11.50
2017-11-16T16:53:50.958Z,11.40
2017-11-16T16:56:19.831Z,11.40
2017-11-16T16:58:48.740Z,11.30
2017-11-16T17:01:17.597Z,11.30
2017-11-16T17:03:47.217Z,11.20
2017-11-16T17:06:16.086Z,11.10
2017-11-16T17:08:44.923Z,11.30
2017-11-16T17:11:13.829Z,11.40
2017-11-16T17:13:44.187Z,11.30
2017-11-16T17:16:13.075Z,11.30
2017-11-16T17:18:41.966Z,11.50
2017-11-16T17:21:10.832Z,11.60
2017-11-16T17:23:40.469Z,11.60
2017-11-16T17:26:09.429Z,11.60
2017-11-16T17:28:39.037Z,11.40
2017-11-16T17:31:08.664Z,11.60
2017-11-16T17:33:37.535Z,11.50
2017-11-16T17:36:07.145Z,11.50
2017-11-16T17:38:36.088Z,11.50
2017-11-16T17:41:04.928Z,11.30
2017-11-16T17:43:34.553Z,11.50
2017-11-16T17:46:03.483Z,11.50
2017-11-16T17:48:32.321Z,11.50
2017-11-16T17:51:01.204Z,11.50
2017-11-16T17:53:30.793Z,11.10
2017-11-16T17:55:59.997Z,11.10
2017-11-16T17:58:29.620Z,10.80
2017-11-16T18:00:59.256Z,10.80
2017-11-16T18:03:28.187Z,10.80
2017-11-16T18:05:57.025Z,10.80
2017-11-16T18:08:27.254Z,10.90
2017-11-16T18:10:56.919Z,10.80
2017-11-16T18:13:25.758Z,10.70
2017-11-16T18:15:54.616Z,10.90
2017-11-16T18:18:24.253Z,10.80
2017-11-16T18:20:53.136Z,10.80
2017-11-16T18:23:23.119Z,10.80
2017-11-16T18:25:51.962Z,10.70
2017-11-16T18:28:20.821Z,10.80
2017-11-16T18:30:50.501Z,10.80
2017-11-16T18:33:19.359Z,10.80
2017-11-16T18:35:48.222Z,10.80
2017-11-16T18:38:17.413Z,10.90
2017-11-16T18:40:47.101Z,11.00
2017-11-16T18:43:15.997Z,10.90
2017-11-16T18:45:45.940Z,11.10
2017-11-16T18:48:14.824Z,11.00
2017-11-16T18:50:44.420Z,11.00
2017-11-16T18:53:14.068Z,10.90
2017-11-16T18:55:42.890Z,10.90
2017-11-16T18:58:11.761Z,11.00
2017-11-16T19:00:40.629Z,10.90
2017-11-16T19:03:09.510Z,11.00
2017-11-16T19:05:38.381Z,10.90
2017-11-16T19:08:07.280Z,10.80
2017-11-16T19:10:37.574Z,10.80
2017-11-16T19:26:06.484Z,10.80
2017-11-16T19:28:35.352Z,10.00
2017-11-16T19:31:04.293Z,9.90
2017-11-16T19:33:34.065Z,9.90
2017-11-16T19:36:02.927Z,9.90
2017-11-16T19:38:31.882Z,9.90
2017-11-16T19:41:00.767Z,10.00
2017-11-16T19:43:29.716Z,10.10
2017-11-16T19:45:58.638Z,10.10
2017-11-16T19:48:27.475Z,10.10
2017-11-16T19:50:56.333Z,10.20
2017-11-16T19:53:26.171Z,10.30
2017-11-16T19:55:55.100Z,10.20
2017-11-16T19:58:24.061Z,10.30
2017-11-16T20:00:52.922Z,10.20
2017-11-16T20:03:21.749Z,10.20
2017-11-16T20:05:50.622Z,10.20
2017-11-16T20:08:19.527Z,10.20
2017-11-16T20:10:48.538Z,10.30
2017-11-16T20:13:17.395Z,10.20
2017-11-16T20:15:46.347Z,10.30
2017-11-16T20:18:15.972Z,10.30
2017-11-16T20:20:45.207Z,10.30
2017-11-16T20:23:14.126Z,10.40
2017-11-16T20:25:43.032Z,10.50
2017-11-16T20:28:12.666Z,10.50
2017-11-16T20:30:42.031Z,10.40
2017-11-16T20:33:11.641Z,10.40
2017-11-16T20:35:41.345Z,10.30
2017-11-16T20:51:52.226Z,10.40
2017-11-16T20:54:22.880Z,10.50
2017-11-16T20:56:51.760Z,10.40
2017-11-16T20:59:20.600Z,10.20
2017-11-16T21:01:50.204Z,10.20
2017-11-16T21:04:19.953Z,10.30
2017-11-16T21:06:48.803Z,10.20
2017-11-16T21:09:18.592Z,10.40
2017-11-16T21:11:47.481Z,10.40
2017-11-16T21:14:17.174Z,10.40
2017-11-16T21:16:46.168Z,10.30
2017-11-16T21:19:15.013Z,10.40
2017-11-16T21:21:44.115Z,10.30
2017-11-16T21:24:12.961Z,10.40
2017-11-16T21:26:42.612Z,10.40
2017-11-16T21:29:11.476Z,10.40
2017-11-16T21:31:41.142Z,10.60
2017-11-16T21:34:10.036Z,10.50
2017-11-16T21:36:38.882Z,10.50
2017-11-16T21:39:07.783Z,10.60
2017-11-16T21:41:36.628Z,10.50
2017-11-16T21:44:07.141Z,10.40
2017-11-16T21:46:35.975Z,10.40
2017-11-16T21:49:04.982Z,10.40
2017-11-16T21:51:33.808Z,10.50
2017-11-16T21:54:02.674Z,10.50
2017-11-16T21:56:31.621Z,10.60
2017-11-16T21:59:01.296Z,10.50
2017-11-16T22:01:30.133Z,10.50
2017-11-16T22:03:58.989Z,10.40
2017-11-16T22:06:28.625Z,10.60
2017-11-16T22:08:57.505Z,10.60
2017-11-16T22:11:26.376Z,10.60
2017-11-16T22:13:55.236Z,10.80
2017-11-16T22:16:24.090Z,10.70
2017-11-16T22:18:53.723Z,10.70
2017-11-16T22:21:22.579Z,10.70
2017-11-16T22:23:51.532Z,10.60
2017-11-16T22:26:20.392Z,10.60
2017-11-16T22:28:49.458Z,10.80
2017-11-16T22:31:19.097Z,10.90
2017-11-16T22:33:47.946Z,10.80
2017-11-16T22:36:18.795Z,10.80
2017-11-16T22:38:47.612Z,10.80
2017-11-16T22:41:16.477Z,10.80
2017-11-16T22:43:46.081Z,10.80
2017-11-16T22:46:15.711Z,10.70
2017-11-16T22:48:44.594Z,10.70
2017-11-16T22:51:13.443Z,10.80
2017-11-16T22:53:42.306Z,10.80
2017-11-16T22:56:11.145Z,10.70
2017-11-16T22:58:40.783Z,10.90
2017-11-16T23:01:09.641Z,10.90
2017-11-16T23:03:39.296Z,11.10
2017-11-16T23:06:08.171Z,11.00
2017-11-16T23:08:37.040Z,11.10
2017-11-16T23:11:05.909Z,11.20
2017-11-16T23:13:34.768Z,11.20
2017-11-16T23:16:04.408Z,11.00
2017-11-16T23:18:33.243Z,11.00
2017-11-16T23:21:02.080Z,11.00
2017-11-16T23:23:30.934Z,11.00
2017-11-16T23:26:00.556Z,11.00
2017-11-16T23:28:30.204Z,11.20
2017-11-16T23:30:59.054Z,11.10
2017-11-16T23:33:28.992Z,11.30
2017-11-16T23:35:57.852Z,11.30
2017-11-16T23:38:27.471Z,11.20
2017-11-16T23:40:57.071Z,11.20
2017-11-16T23:43:26.678Z,11.20
2017-11-16T23:45:56.295Z,11.10
2017-11-16T23:48:25.162Z,11.00
2017-11-16T23:50:54.912Z,11.20
2017-11-16T23:53:24.424Z,11.10
2017-11-16T23:55:53.272Z,11.00
2017-11-16T23:58:23.319Z,11.20
